»·PEaware :: DAL1914 KSLC-KBOI

DAL1914 :: KSLC-KBOI

FLIGHT INFORMATION

Flight Status: Arrived
Operator:
Delta Air Lines
More flights by this operator :: More flights under this callsign
Pilot: Joe P. (13940)
Aircraft: BOEING 737-700
(B737)
More flights by this aircraft type
Origin: KSLC Salt Lake City Intl
United States
Destination: KBOI Boise Air Terminal/Gowen
United States
More flights between these airports :: More routes between these airports
Route: CGULL1 TWF BROPH SPUUD3
File this flight plan on PilotEdge
Remarks: KTWF -PBN / A1B1C1D1L1O1S1 NAV / RNVD1E2A1 DOF / 180815 REG / N389DA RVR / 200 PER / C
Altitude:
(Current/Filed)
300ft
Speed:
(Current/Filed)
460kts
Departed: 14-Aug-18 07:34 PM
Arrived: 14-Aug-18 08:19 PM
Distance/Time
Traveled:
252nm/0:45
Distance/Time
To Go:
Arrived

Flight Plot

Page will automatically refresh every two minutes.

Flight plan parsing failed; only flown route is shown


Map Options




Map Legend


Flown Route
Filed Route
Departure Airport
Arrival Airport
Navaid (VOR, NDB)
Fix

Horizontal Profiles

Position Reports

Time Latitude Longitude Heading Altitude Ground
Speed
14-Aug-18 18:28 40.789075 -111.985536 130 4235ft 0kts
14-Aug-18 18:29 40.789075 -111.985536 130 4235ft 0kts
14-Aug-18 18:30 40.789075 -111.985536 130 4235ft 0kts
14-Aug-18 18:31 40.789075 -111.985536 130 4235ft 0kts
14-Aug-18 18:32 40.789075 -111.985536 130 4235ft 0kts
14-Aug-18 18:33 40.789075 -111.985536 130 4235ft 0kts
14-Aug-18 18:34 40.789075 -111.985536 130 4235ft 0kts
14-Aug-18 18:35 40.789075 -111.985536 130 4235ft 0kts
14-Aug-18 18:36 40.789075 -111.985536 130 4235ft 0kts
14-Aug-18 18:37 40.789075 -111.985536 130 4235ft 0kts
14-Aug-18 18:38 40.789075 -111.985536 130 4235ft 0kts
14-Aug-18 18:39 40.789075 -111.985536 130 4235ft 0kts
14-Aug-18 18:40 40.789075 -111.985536 130 4235ft 0kts
14-Aug-18 18:41 40.789075 -111.985536 130 4235ft 0kts
14-Aug-18 18:42 40.789075 -111.985536 130 4235ft 0kts
14-Aug-18 18:43 40.789075 -111.985536 130 4235ft 0kts
14-Aug-18 18:44 40.789075 -111.985536 130 4235ft 0kts
14-Aug-18 18:45 40.789075 -111.985536 130 4235ft 0kts
14-Aug-18 18:46 40.789075 -111.985536 130 4235ft 0kts
14-Aug-18 18:47 40.789075 -111.985536 130 4235ft 0kts
14-Aug-18 18:48 40.789075 -111.985536 130 4235ft 0kts
14-Aug-18 18:49 40.789075 -111.985536 130 4235ft 0kts
14-Aug-18 18:50 40.789075 -111.985536 130 4235ft 0kts
14-Aug-18 18:51 40.789075 -111.985536 130 4235ft 0kts
14-Aug-18 18:52 40.789075 -111.985536 130 4235ft 0kts
14-Aug-18 18:53 40.789075 -111.985536 130 4235ft 0kts
14-Aug-18 18:54 40.789075 -111.985536 130 4235ft 0kts
14-Aug-18 18:55 40.789075 -111.985536 130 4235ft 0kts
14-Aug-18 18:56 40.789075 -111.985536 130 4235ft 0kts
14-Aug-18 18:57 40.789075 -111.985536 130 4235ft 0kts
14-Aug-18 18:58 40.789075 -111.985536 130 4235ft 0kts
14-Aug-18 18:59 40.789075 -111.985536 130 4235ft 0kts
14-Aug-18 19:00 40.789075 -111.985536 130 4235ft 0kts
14-Aug-18 19:01 40.789075 -111.985536 130 4235ft 0kts
14-Aug-18 19:02 40.789075 -111.985536 130 4235ft 0kts
14-Aug-18 19:03 40.789075 -111.985536 130 4235ft 0kts
14-Aug-18 19:04 40.789075 -111.985536 130 4235ft 0kts
14-Aug-18 19:05 40.789075 -111.985536 130 4235ft 0kts
14-Aug-18 19:06 40.789075 -111.985536 130 4235ft 0kts
14-Aug-18 19:07 40.789075 -111.985536 130 4235ft 0kts
14-Aug-18 19:08 40.789075 -111.985536 130 4235ft 0kts
14-Aug-18 19:09 40.789075 -111.985536 130 4235ft 0kts
14-Aug-18 19:10 40.789075 -111.985536 130 4235ft 0kts
14-Aug-18 19:11 40.789075 -111.985536 130 4235ft 0kts
14-Aug-18 19:12 40.789075 -111.985536 130 4235ft 0kts
14-Aug-18 19:13 40.789075 -111.985536 130 4235ft 0kts
14-Aug-18 19:14 40.789075 -111.985536 130 4235ft 0kts
14-Aug-18 19:15 40.789075 -111.985536 130 4235ft 0kts
14-Aug-18 19:16 40.789075 -111.985536 130 4235ft 0kts
14-Aug-18 19:17 40.789075 -111.985536 130 4235ft 0kts
14-Aug-18 19:18 40.789075 -111.985536 130 4235ft 0kts
14-Aug-18 19:19 40.789075 -111.985536 130 4235ft 0kts
14-Aug-18 19:20 40.789075 -111.985536 130 4235ft 0kts
14-Aug-18 19:21 40.789075 -111.985536 130 4235ft 0kts
14-Aug-18 19:22 40.789104 -111.985581 130 4235ft 1kts
14-Aug-18 19:23 40.789583 -111.986118 168 4235ft 2kts
14-Aug-18 19:24 40.789827 -111.985926 238 4235ft 0kts
14-Aug-18 19:25 40.789826 -111.985926 238 4235ft 0kts
14-Aug-18 19:26 40.789825 -111.985928 238 4235ft 0kts
14-Aug-18 19:27 40.789825 -111.985929 238 4235ft 0kts
14-Aug-18 19:28 40.790289 -111.987017 336 4235ft 15kts
14-Aug-18 19:29 40.791267 -111.990636 264 4235ft 17kts
14-Aug-18 19:30 40.789691 -111.995045 175 4235ft 18kts
14-Aug-18 19:31 40.784429 -111.994410 176 4235ft 12kts
14-Aug-18 19:32 40.779594 -111.994356 175 4235ft 16kts
14-Aug-18 19:33 40.775473 -111.994182 218 4235ft 0kts
14-Aug-18 19:34 40.775355 -111.994415 248 4235ft 8kts
14-Aug-18 19:35 40.777574 -111.995837 354 4235ft 58kts
14-Aug-18 19:36 40.819588 -112.004312 335 5517ft 202kts
14-Aug-18 19:37 40.870415 -112.038187 332 7803ft 237kts
14-Aug-18 19:38 40.927428 -112.094100 300 9743ft 270kts
14-Aug-18 19:39 40.968793 -112.189461 299 11522ft 332kts
14-Aug-18 19:40 41.017548 -112.303239 299 13698ft 365kts
14-Aug-18 19:41 41.072251 -112.419134 313 16381ft 378kts
14-Aug-18 19:42 41.159405 -112.501314 326 18812ft 392kts
14-Aug-18 19:43 41.248288 -112.589414 320 20920ft 405kts
14-Aug-18 19:44 41.329838 -112.695012 310 22826ft 415kts
14-Aug-18 19:45 41.408324 -112.810616 309 24522ft 426kts
14-Aug-18 19:46 41.487030 -112.931259 308 26090ft 435kts
14-Aug-18 19:47 41.567325 -113.054961 308 27491ft 445kts
14-Aug-18 19:48 41.648401 -113.180000 308 29242ft 442kts
14-Aug-18 19:49 41.729331 -113.304789 308 30030ft 445kts
14-Aug-18 19:50 41.809749 -113.429643 308 30031ft 443kts
14-Aug-18 19:51 41.890243 -113.555220 308 30026ft 442kts
14-Aug-18 19:52 41.970548 -113.680879 308 30021ft 443kts
14-Aug-18 19:53 42.051173 -113.807569 308 30021ft 445kts
14-Aug-18 19:54 42.131867 -113.935483 308 30019ft 446kts
14-Aug-18 19:55 42.212520 -114.063286 308 30021ft 448kts
14-Aug-18 19:56 42.293216 -114.191042 308 30024ft 448kts
14-Aug-18 19:57 42.373661 -114.319022 308 30027ft 447kts
14-Aug-18 19:58 42.454044 -114.447927 308 30028ft 445kts
14-Aug-18 19:59 42.532948 -114.573974 308 29201ft 428kts
14-Aug-18 20:00 42.609225 -114.695510 308 27158ft 417kts
14-Aug-18 20:01 42.683216 -114.814585 308 25140ft 407kts
14-Aug-18 20:02 42.757140 -114.928462 313 23156ft 398kts
14-Aug-18 20:03 42.833001 -115.035983 312 21196ft 388kts
14-Aug-18 20:04 42.906471 -115.141943 311 19253ft 379kts
14-Aug-18 20:05 42.977725 -115.244796 311 17440ft 366kts
14-Aug-18 20:06 43.046223 -115.344676 311 15695ft 355kts
14-Aug-18 20:07 43.112586 -115.441830 311 13983ft 345kts
14-Aug-18 20:08 43.175843 -115.534431 312 12358ft 317kts
14-Aug-18 20:09 43.233966 -115.619668 312 10908ft 299kts
14-Aug-18 20:10 43.288387 -115.697691 317 9986ft 263kts
14-Aug-18 20:11 43.340622 -115.764031 317 8789ft 246kts
14-Aug-18 20:12 43.387790 -115.824308 317 7882ft 216kts
14-Aug-18 20:13 43.428201 -115.876827 317 7298ft 188kts
14-Aug-18 20:14 43.464840 -115.927748 304 6685ft 188kts
14-Aug-18 20:15 43.486581 -115.991998 294 6081ft 181kts
14-Aug-18 20:16 43.506674 -116.051219 296 5296ft 167kts
14-Aug-18 20:17 43.526685 -116.109420 295 4381ft 166kts
14-Aug-18 20:18 43.546132 -116.166223 295 3508ft 159kts
14-Aug-18 20:19 43.564344 -116.219721 295 2879ft 115kts
14-Aug-18 20:20 43.567979 -116.228962 351 2879ft 0kts
14-Aug-18 20:21 43.568442 -116.228302 105 2879ft 0kts
14-Aug-18 20:22 43.568442 -116.228300 105 2879ft 0kts
14-Aug-18 20:23 43.567430 -116.225194 114 2879ft 18kts
14-Aug-18 20:24 43.566392 -116.220883 115 2879ft 6kts
14-Aug-18 20:25 43.565782 -116.217501 9 2879ft 15kts
14-Aug-18 20:26 43.567253 -116.218467 262 2879ft 0kts
14-Aug-18 20:27 43.567253 -116.218467 262 2879ft 0kts
14-Aug-18 20:28 43.567253 -116.218467 262 2879ft 0kts
14-Aug-18 20:29 43.567253 -116.218467 262 2879ft 0kts
14-Aug-18 20:30 43.567253 -116.218467 262 2879ft 0kts
14-Aug-18 20:31 43.567253 -116.218467 262 2879ft 0kts
14-Aug-18 20:32 43.567253 -116.218467 262 2879ft 0kts
14-Aug-18 20:33 43.567253 -116.218467 262 2879ft 0kts
14-Aug-18 20:34 43.567253 -116.218467 262 2879ft 0kts
14-Aug-18 20:35 43.567253 -116.218467 262 2879ft 0kts

Navigation Log

Ident Type
Flight plan parsing failed, navigation log unavailable